Time;durP1;ratioP1;P1;durP2;ratioP2;P2;SDS_P1;SDS_P2;PMS_P1;PMS_P2;Temp;Humidity;BMP_temperature;BMP_pressure;BME280_temperature;BME280_humidity;BME280_pressure;Samples;Min_cycle;Max_cycle;Signal;HPM_P1;HPM_P2
2022/06/17 00:01:19;;;;;;;;;18.75;16.75;;;;;24.59;41.97;101929.72;5064104;28;45416;-67
2022/06/17 00:03:45;;;;;;;;;16.75;15.75;;;;;24.47;42.29;101909.19;5063205;28;45343;-67
2022/06/17 00:06:12;;;;;;;;;19.25;17.75;;;;;24.35;42.52;101920.06;5062458;28;45385;-68
2022/06/17 00:08:42;;;;;;;;;21.25;19.75;;;;;24.20;42.93;101905.50;5061183;28;45562;-67
2022/06/17 00:11:20;;;;;;;;;17.25;17.25;;;;;24.14;43.50;101914.63;5062925;28;45318;-67
2022/06/17 00:13:46;;;;;;;;;17.25;16.25;;;;;24.09;42.93;101903.31;5062538;28;46295;-67
2022/06/17 00:16:13;;;;;;;;;18.75;18.75;;;;;24.09;44.03;101914.44;5062421;28;45337;-67
2022/06/17 00:18:39;;;;;;;;;22.00;17.75;;;;;24.04;43.56;101902.00;5062819;28;45421;-67
2022/06/17 00:21:05;;;;;;;;;20.75;18.75;;;;;24.03;43.67;101905.88;5062472;28;45518;-67
2022/06/17 00:23:30;;;;;;;;;20.25;19.25;;;;;23.97;43.60;101895.56;5062468;28;46266;-67
2022/06/17 00:25:56;;;;;;;;;18.00;17.75;;;;;23.96;43.79;101893.88;5077925;27;45345;-67
2022/06/17 00:28:23;;;;;;;;;21.50;18.00;;;;;23.95;44.03;101905.19;5062764;28;45313;-68
2022/06/17 00:30:50;;;;;;;;;20.50;20.00;;;;;23.92;43.81;101900.91;5062070;28;45322;-67
2022/06/17 00:33:17;;;;;;;;;20.50;18.75;;;;;23.92;43.60;101911.16;5063096;28;45445;-67
2022/06/17 00:35:50;;;;;;;;;20.75;16.00;;;;;23.93;43.35;101908.19;5062260;28;45290;-67
2022/06/17 00:38:20;;;;;;;;;18.50;16.50;;;;;23.97;43.42;101917.78;5062308;28;45279;-67
2022/06/17 00:40:46;;;;;;;;;17.50;16.75;;;;;23.94;43.68;101909.91;5063007;28;45337;-67
2022/06/17 00:43:30;;;;;;;;;15.50;13.75;;;;;23.97;43.33;101911.38;5063091;28;45311;-67
2022/06/17 00:46:20;;;;;;;;;18.25;17.75;;;;;23.97;43.31;101906.69;5061000;28;45186;-67
2022/06/17 00:49:13;;;;;;;;;18.00;18.00;;;;;23.83;44.00;101899.38;5062136;28;45431;-67
2022/06/17 00:51:45;;;;;;;;;17.75;15.25;;;;;23.78;43.85;101896.38;5059770;28;45453;-67
2022/06/17 00:54:24;;;;;;;;;15.75;12.50;;;;;23.78;43.87;101907.47;5062628;28;45334;-67
2022/06/17 00:56:50;;;;;;;;;17.75;15.50;;;;;23.79;43.35;101908.34;5061806;28;45614;-65
2022/06/17 00:59:15;;;;;;;;;14.25;13.75;;;;;23.70;44.47;101910.44;5077219;28;45345;-65
2022/06/17 01:01:50;;;;;;;;;15.00;13.25;;;;;23.73;44.77;101907.25;5062152;28;45394;-66
2022/06/17 01:04:20;;;;;;;;;16.00;13.25;;;;;23.75;44.23;101907.88;5061956;28;46440;-66
2022/06/17 01:06:52;;;;;;;;;15.25;15.25;;;;;23.81;42.92;101912.63;5061325;28;45389;-65
2022/06/17 01:12:17;;;;;;;;;14.75;13.50;;;;;23.89;43.92;101915.19;5051513;28;45256;-66
2022/06/17 01:14:43;;;;;;;;;11.75;11.75;;;;;23.93;43.84;101913.72;5059904;28;47373;-66
2022/06/17 01:17:12;;;;;;;;;14.00;14.00;;;;;23.90;43.55;101922.47;5061822;28;45224;-66
2022/06/17 01:19:47;;;;;;;;;17.50;14.50;;;;;23.88;44.43;101919.06;5061730;28;45409;-66
2022/06/17 01:22:27;;;;;;;;;16.25;15.75;;;;;23.88;43.20;101927.38;5062572;28;45408;-66
2022/06/17 01:25:17;;;;;;;;;13.50;12.75;;;;;23.86;43.50;101926.72;5061835;28;45279;-66
2022/06/17 01:27:52;;;;;;;;;15.50;14.25;;;;;23.87;42.93;101931.22;5061442;28;45404;-66
2022/06/17 01:30:23;;;;;;;;;13.25;13.25;;;;;23.87;43.65;101928.44;5077536;28;45375;-65
2022/06/17 01:33:22;;;;;;;;;12.25;12.25;;;;;23.81;44.42;101926.50;5062866;28;45531;-65
2022/06/17 01:35:53;;;;;;;;;12.50;12.50;;;;;23.69;44.50;101925.34;5060432;28;45278;-65
2022/06/17 01:38:21;;;;;;;;;13.75;13.75;;;;;23.69;44.79;101930.91;5061534;28;45260;-66
2022/06/17 01:40:46;;;;;;;;;15.75;13.50;;;;;23.72;44.40;101930.50;5061964;28;45380;-65
2022/06/17 01:43:15;;;;;;;;;18.50;14.50;;;;;23.64;45.06;101923.22;5078424;28;45393;-66
2022/06/17 01:45:53;;;;;;;;;12.25;12.25;;;;;23.53;44.63;101932.09;5061437;28;46480;-65
2022/06/17 01:48:19;;;;;;;;;15.50;15.50;;;;;23.45;45.44;101935.00;5059864;28;45279;-66
2022/06/17 01:50:47;;;;;;;;;13.25;11.75;;;;;23.40;45.46;101933.91;5062157;28;45350;-66
2022/06/17 01:53:17;;;;;;;;;15.50;13.75;;;;;23.28;46.21;101942.81;5062483;28;45368;-66
2022/06/17 01:55:54;;;;;;;;;13.25;13.25;;;;;23.27;45.38;101949.41;5061275;28;45463;-65
2022/06/17 01:58:36;;;;;;;;;15.00;15.00;;;;;23.35;44.94;101947.53;5076538;28;45377;-66
2022/06/17 02:01:05;;;;;;;;;14.25;14.25;;;;;23.38;45.42;101945.19;5061453;28;45161;-66
2022/06/17 02:03:42;;;;;;;;;14.50;14.50;;;;;23.39;45.37;101938.59;5061298;28;45394;-66
2022/06/17 02:06:52;;;;;;;;;14.75;14.00;;;;;23.26;46.17;101950.47;5060597;28;45357;-65
2022/06/17 02:09:18;;;;;;;;;15.25;15.00;;;;;23.18;46.21;101964.50;5060968;28;45432;-66
2022/06/17 02:11:43;;;;;;;;;13.25;13.25;;;;;23.05;47.05;101956.06;5063251;28;45668;-66
2022/06/17 02:14:09;;;;;;;;;16.00;13.50;;;;;22.90;47.43;101953.41;5064874;28;45161;-66
2022/06/17 02:16:39;;;;;;;;;15.00;13.00;;;;;22.94;47.33;101959.38;5064107;28;47244;-66
2022/06/17 02:19:05;;;;;;;;;16.00;15.25;;;;;22.85;47.63;101955.91;5064842;28;45231;-66
2022/06/17 02:21:41;;;;;;;;;16.00;14.00;;;;;22.79;48.22;101966.94;5065060;28;45429;-66
2022/06/17 02:24:09;;;;;;;;;16.25;14.00;;;;;22.77;47.71;101974.59;5065411;28;45589;-66
2022/06/17 02:26:37;;;;;;;;;13.25;13.00;;;;;22.71;48.30;101972.59;5064424;28;45685;-66
2022/06/17 02:29:06;;;;;;;;;13.25;13.25;;;;;22.60;49.02;101962.88;5064132;28;45421;-66
2022/06/17 02:31:34;;;;;;;;;14.25;14.25;;;;;22.61;48.28;101981.22;5065258;28;45164;-66
2022/06/17 02:34:00;;;;;;;;;16.67;14.67;;;;;22.63;48.50;101978.25;5080821;28;45422;-66
2022/06/17 02:36:34;;;;;;;;;17.00;16.00;;;;;22.57;48.46;101971.59;5064315;28;45286;-66
2022/06/17 02:39:01;;;;;;;;;15.50;12.75;;;;;22.53;49.06;101984.97;5064296;28;45358;-66
2022/06/17 02:41:28;;;;;;;;;15.75;15.75;;;;;22.59;48.50;101976.91;5064435;28;45395;-66
2022/06/17 02:44:03;;;;;;;;;14.25;14.25;;;;;22.56;48.62;101972.66;5064725;28;45329;-66
2022/06/17 02:46:34;;;;;;;;;15.50;15.50;;;;;22.56;49.23;101972.66;5064317;28;45433;-66
2022/06/17 02:49:03;;;;;;;;;15.00;14.25;;;;;22.53;49.24;101973.91;5064054;28;45424;-66
2022/06/17 02:51:33;;;;;;;;;16.00;15.50;;;;;22.50;49.17;101985.34;5063994;28;45416;-66
2022/06/17 02:54:02;;;;;;;;;13.00;13.00;;;;;22.46;49.86;101983.19;5064583;28;45346;-66
2022/06/17 02:56:31;;;;;;;;;14.50;13.25;;;;;22.47;49.64;101985.75;5064165;28;45457;-66
2022/06/17 02:59:33;;;;;;;;;15.00;15.00;;;;;22.53;48.90;101982.22;5063674;28;45266;-66
2022/06/17 03:02:05;;;;;;;;;14.25;14.25;;;;;22.50;49.34;101974.28;5064887;28;45410;-66
2022/06/17 03:04:32;;;;;;;;;17.50;17.25;;;;;22.45;49.12;101965.72;5065008;28;45324;-67
2022/06/17 03:06:59;;;;;;;;;14.75;14.75;;;;;22.45;49.64;101982.31;5063397;28;45451;-68
2022/06/17 03:09:31;;;;;;;;;16.00;14.25;;;;;22.44;49.46;101975.06;5064015;27;45258;-68
2022/06/17 03:12:02;;;;;;;;;16.00;14.00;;;;;22.48;49.81;101968.09;5066854;28;45432;-68
2022/06/17 03:14:33;;;;;;;;;17.00;14.25;;;;;22.49;49.02;101966.19;5063388;28;45198;-67
2022/06/17 03:17:02;;;;;;;;;14.75;14.00;;;;;22.50;49.72;101965.13;5064710;28;45706;-67
2022/06/17 03:19:29;;;;;;;;;21.75;17.75;;;;;22.44;49.14;101960.38;5063330;28;45404;-67
2022/06/17 03:21:55;;;;;;;;;14.00;14.00;;;;;22.40;49.65;101956.28;5063763;28;45408;-65
2022/06/17 03:24:27;;;;;;;;;16.50;14.75;;;;;22.38;49.42;101948.16;5064535;28;45483;-65
2022/06/17 03:27:04;;;;;;;;;18.00;18.00;;;;;22.39;49.47;101951.78;5053412;28;45570;-65
2022/06/17 03:29:33;;;;;;;;;16.50;15.25;;;;;22.37;49.08;101949.22;5063415;28;45186;-67
2022/06/17 03:32:07;;;;;;;;;16.50;14.25;;;;;22.41;50.06;101952.47;5063638;28;45269;-65
2022/06/17 03:35:02;;;;;;;;;16.50;16.50;;;;;22.33;50.35;101956.22;5063681;28;45446;-65
2022/06/17 03:37:50;;;;;;;;;14.25;14.25;;;;;22.32;50.56;101942.56;5057900;28;46397;-66
2022/06/17 03:40:27;;;;;;;;;14.00;14.00;;;;;22.31;50.04;101935.31;5064038;28;45326;-65
2022/06/17 03:43:08;;;;;;;;;15.25;15.25;;;;;22.26;50.07;101924.84;5064225;28;45248;-66
2022/06/17 03:45:48;;;;;;;;;17.50;16.25;;;;;22.19;50.71;101918.38;5063699;28;45368;-66
2022/06/17 03:48:20;;;;;;;;;16.25;16.25;;;;;22.28;49.73;101919.09;5063077;28;45481;-66
2022/06/17 03:50:47;;;;;;;;;23.75;22.00;;;;;22.21;50.70;101934.78;5063036;28;45238;-66
2022/06/17 03:53:36;;;;;;;;;21.50;18.50;;;;;22.17;50.08;101955.59;5062801;28;45218;-66
2022/06/17 03:56:21;;;;;;;;;19.50;16.25;;;;;22.31;49.87;101971.31;5063507;28;45256;-66
2022/06/17 03:58:48;;;;;;;;;17.50;16.75;;;;;22.38;50.69;101975.00;5061260;28;46522;-66
2022/06/17 04:01:19;;;;;;;;;18.75;16.00;;;;;22.41;50.04;101981.03;5063255;28;45231;-66
2022/06/17 04:03:52;;;;;;;;;18.25;18.25;;;;;22.42;49.79;101979.09;5063733;28;45275;-66
2022/06/17 04:06:22;;;;;;;;;18.00;17.50;;;;;22.39;49.79;101988.66;5062848;28;45521;-66
2022/06/17 04:08:57;;;;;;;;;17.25;16.50;;;;;22.41;50.10;101981.03;5062228;28;45404;-66
2022/06/17 04:11:37;;;;;;;;;16.50;15.50;;;;;22.45;49.69;101978.69;5061564;28;45350;-66
2022/06/17 04:14:19;;;;;;;;;15.75;15.75;;;;;22.49;50.21;101977.28;5063097;28;45369;-66
2022/06/17 04:17:02;;;;;;;;;15.25;15.25;;;;;22.47;50.28;101979.38;5063764;28;45443;-66
2022/06/17 04:19:28;;;;;;;;;21.00;19.50;;;;;22.50;49.38;101976.22;5061353;28;45362;-67
2022/06/17 04:22:02;;;;;;;;;17.50;16.25;;;;;22.56;49.00;101980.09;5062823;28;45402;-66
2022/06/17 04:24:29;;;;;;;;;17.00;16.75;;;;;22.52;49.44;101960.25;5062501;28;45629;-66
2022/06/17 04:27:04;;;;;;;;;22.75;20.75;;;;;22.53;50.06;101970.25;5062639;28;45355;-67
2022/06/17 04:29:37;;;;;;;;;22.75;21.25;;;;;22.55;50.43;101970.06;5061913;28;46370;-67
2022/06/17 04:32:21;;;;;;;;;24.00;18.25;;;;;22.57;48.97;101971.59;5062000;28;45346;-67
2022/06/17 04:34:46;;;;;;;;;17.25;17.25;;;;;22.62;50.18;101959.91;5062377;28;45341;-67
2022/06/17 04:37:20;;;;;;;;;22.50;20.50;;;;;22.59;49.67;101961.16;5061838;28;45459;-66
2022/06/17 04:39:56;;;;;;;;;24.00;22.25;;;;;22.56;50.79;101971.78;5061812;28;45617;-67
2022/06/17 04:42:38;;;;;;;;;22.00;18.50;;;;;22.61;49.52;101972.06;5060216;28;45395;-66
2022/06/17 04:45:05;;;;;;;;;18.25;17.25;;;;;22.67;49.97;101969.34;5062227;28;45245;-67
2022/06/17 04:47:32;;;;;;;;;27.50;19.00;;;;;22.72;49.71;101977.91;5063212;28;45671;-66
2022/06/17 04:50:03;;;;;;;;;23.00;20.75;;;;;22.77;49.77;101974.59;5060429;28;45817;-66
2022/06/17 04:52:30;;;;;;;;;19.75;18.50;;;;;22.91;48.92;101979.19;5061317;28;45461;-66
2022/06/17 04:54:58;;;;;;;;;19.25;19.25;;;;;23.02;49.04;101978.63;5061953;28;45357;-67
2022/06/17 04:57:23;;;;;;;;;26.25;22.50;;;;;23.03;48.16;101969.28;5062106;28;45442;-66
2022/06/17 04:59:49;;;;;;;;;17.50;17.25;;;;;23.12;48.11;101972.75;5061518;28;46301;-67
2022/06/17 05:02:17;;;;;;;;;21.50;20.00;;;;;23.28;47.63;101994.66;5064704;28;45455;-66
2022/06/17 05:04:44;;;;;;;;;22.50;20.75;;;;;23.32;47.85;101986.75;5061810;28;45150;-66
2022/06/17 05:07:10;;;;;;;;;19.50;15.75;;;;;23.41;47.55;101980.00;5061491;28;45539;-66
2022/06/17 05:09:44;;;;;;;;;26.25;22.50;;;;;23.53;46.77;101981.19;5061013;28;46583;-66
2022/06/17 05:12:18;;;;;;;;;18.25;17.25;;;;;24.19;46.12;101984.28;5061341;28;45347;-66
2022/06/17 05:14:55;;;;;;;;;20.00;17.75;;;;;24.56;44.82;101983.78;5061336;28;45244;-66
2022/06/17 05:17:21;;;;;;;;;18.25;16.25;;;;;24.40;44.85;101984.19;5060376;28;45346;-66
2022/06/17 05:19:48;;;;;;;;;19.00;18.75;;;;;24.22;45.25;101978.34;5060849;28;45581;-66
2022/06/17 05:22:32;;;;;;;;;21.00;21.00;;;;;24.19;45.38;101965.69;5060797;28;45247;-65
2022/06/17 05:24:59;;;;;;;;;23.00;18.75;;;;;24.21;45.24;101962.75;5061109;28;45290;-68
2022/06/17 05:27:24;;;;;;;;;19.50;18.50;;;;;24.18;47.15;101957.59;5061644;28;45239;-66
2022/06/17 05:29:50;;;;;;;;;19.00;17.50;;;;;24.10;46.73;101955.00;5076863;27;45367;-66
2022/06/17 05:32:18;;;;;;;;;20.25;17.25;;;;;24.16;46.56;101965.28;5061732;28;45245;-66
2022/06/17 05:34:45;;;;;;;;;21.50;18.75;;;;;24.17;46.39;101961.44;5061696;28;45282;-67
2022/06/17 05:37:10;;;;;;;;;19.75;18.75;;;;;24.42;46.00;101951.47;5061154;28;45307;-66
2022/06/17 05:39:35;;;;;;;;;18.00;18.00;;;;;25.05;44.10;101950.09;5060777;28;45409;-68
2022/06/17 05:42:01;;;;;;;;;23.50;20.75;;;;;25.92;42.50;101943.28;5061543;28;45315;-67
2022/06/17 05:44:26;;;;;;;;;19.25;16.75;;;;;26.44;41.47;101944.09;5063459;28;45180;-68
2022/06/17 05:46:51;;;;;;;;;17.25;16.25;;;;;26.35;42.14;101940.72;5064765;28;46531;-66
2022/06/17 05:49:17;;;;;;;;;22.50;17.75;;;;;25.82;42.49;101923.38;5065570;28;49017;-68
2022/06/17 05:51:42;;;;;;;;;20.75;16.75;;;;;25.69;44.14;101946.56;5080223;27;45333;-67
2022/06/17 05:54:08;;;;;;;;;21.25;19.50;;;;;25.66;42.39;101943.34;5065548;28;45309;-67
2022/06/17 05:56:33;;;;;;;;;19.00;18.00;;;;;25.55;42.87;101929.03;5063110;28;45590;-67
2022/06/17 05:58:58;;;;;;;;;23.00;22.00;;;;;25.66;42.70;101951.72;5079146;28;46920;-67
2022/06/17 06:01:24;;;;;;;;;20.25;17.50;;;;;25.72;42.50;101945.25;5063874;28;45275;-67
2022/06/17 06:03:49;;;;;;;;;20.25;18.00;;;;;25.83;41.76;101952.94;5064210;28;45815;-68
2022/06/17 06:06:15;;;;;;;;;18.25;17.75;;;;;25.90;41.05;101951.84;5063888;28;45181;-66
2022/06/17 06:08:40;;;;;;;;;15.75;15.25;;;;;26.37;40.14;101957.22;5063498;28;46347;-67
2022/06/17 06:11:06;;;;;;;;;20.50;16.75;;;;;26.64;39.64;101950.38;5063813;28;45392;-67
2022/06/17 06:13:31;;;;;;;;;19.25;14.00;;;;;26.54;40.32;101955.59;5062918;28;45222;-66
2022/06/17 06:15:59;;;;;;;;;21.00;17.50;;;;;26.41;39.45;101941.75;5062738;28;45599;-67
2022/06/17 06:18:28;;;;;;;;;15.00;13.75;;;;;26.49;39.59;101947.06;5062368;28;46780;-67
2022/06/17 06:20:54;;;;;;;;;18.00;16.00;;;;;26.49;39.36;101938.69;5078616;28;45444;-66
2022/06/17 06:23:19;;;;;;;;;17.00;16.50;;;;;26.52;39.44;101933.50;5061102;28;45421;-67
2022/06/17 06:25:44;;;;;;;;;14.00;12.00;;;;;26.54;40.39;101934.16;5063554;28;45279;-66
2022/06/17 06:28:20;;;;;;;;;16.50;13.50;;;;;26.60;38.99;101924.03;5063376;28;46667;-68
2022/06/17 06:30:55;;;;;;;;;10.75;10.75;;;;;26.68;38.81;101929.31;5062423;28;45390;-67
2022/06/17 06:33:21;;;;;;;;;16.67;14.00;;;;;26.78;38.91;101921.31;5063671;28;45294;-67
2022/06/17 06:35:47;;;;;;;;;12.50;12.50;;;;;26.79;38.08;101913.81;5063691;28;45326;-67
2022/06/17 06:38:13;;;;;;;;;17.67;13.67;;;;;26.88;38.83;101913.31;5061684;28;47376;-68
2022/06/17 06:40:39;;;;;;;;;13.67;13.00;;;;;26.96;38.44;101913.03;5062239;28;45349;-67
2022/06/17 06:43:15;;;;;;;;;12.75;12.25;;;;;27.02;37.54;101914.94;5063561;28;45225;-67
2022/06/17 06:45:42;;;;;;;;;16.25;10.50;;;;;27.13;37.08;101924.47;5064696;28;45393;-67
2022/06/17 06:48:08;;;;;;;;;14.00;13.00;;;;;27.04;38.81;101920.25;5079496;28;46676;-67
2022/06/17 06:50:35;;;;;;;;;12.00;11.00;;;;;27.09;36.32;101920.44;5063585;28;45405;-68
2022/06/17 06:53:01;;;;;;;;;10.00;10.00;;;;;27.30;35.57;101919.16;5062378;28;45331;-67
2022/06/17 06:55:27;;;;;;;;;13.00;12.00;;;;;27.28;35.92;101904.56;5063204;28;45259;-67
2022/06/17 06:57:56;;;;;;;;;13.00;11.33;;;;;27.53;36.17;101911.00;5064162;28;45214;-68
2022/06/17 07:00:25;;;;;;;;;10.33;10.33;;;;;27.64;36.17;101906.56;5063599;28;45818;-67
2022/06/17 07:02:51;;;;;;;;;13.67;11.33;;;;;27.78;35.31;101910.88;5062266;28;45285;-68
2022/06/17 07:05:16;;;;;;;;;9.67;9.33;;;;;27.85;35.19;101911.66;5064311;28;45445;-68
2022/06/17 07:07:42;;;;;;;;;12.50;12.50;;;;;27.87;34.78;101921.50;5079447;28;47141;-68
2022/06/17 07:10:11;;;;;;;;;9.25;9.25;;;;;28.03;34.70;101927.56;5079150;27;45599;-68
2022/06/17 07:12:37;;;;;;;;;10.00;10.00;;;;;27.81;34.84;101928.03;5063733;28;45294;-68
2022/06/17 07:15:04;;;;;;;;;13.50;11.75;;;;;27.98;34.74;101928.22;5064480;28;45322;-66
2022/06/17 07:17:30;;;;;;;;;11.75;10.00;;;;;27.96;34.19;101932.38;5062687;28;46652;-66
2022/06/17 07:19:55;;;;;;;;;7.75;7.75;;;;;28.04;34.15;101929.25;5069548;28;45291;-66
2022/06/17 07:22:22;;;;;;;;;12.00;10.00;;;;;28.14;33.42;101919.22;5071532;27;45228;-66
2022/06/17 07:24:47;;;;;;;;;11.67;11.00;;;;;28.36;34.59;101935.47;5064220;28;45662;-66
2022/06/17 07:27:13;;;;;;;;;12.75;11.75;;;;;28.55;33.05;101940.78;5063413;28;45302;-67
2022/06/17 07:29:38;;;;;;;;;13.25;11.00;;;;;28.62;33.19;101935.94;5063598;28;45358;-68
2022/06/17 07:32:04;;;;;;;;;13.33;11.00;;;;;28.61;33.05;101936.19;5079710;27;45420;-67
2022/06/17 07:34:29;;;;;;;;;13.75;11.25;;;;;28.67;32.93;101933.28;5079589;28;45552;-68
2022/06/17 07:39:53;;;;;;;;;10.00;10.00;;;;;28.86;32.62;101927.63;5064105;28;45337;-67
2022/06/17 07:42:19;;;;;;;;;11.00;11.00;;;;;28.89;32.13;101941.13;5079111;27;45342;-67
2022/06/17 07:44:45;;;;;;;;;11.33;10.00;;;;;29.10;32.05;101951.75;5062437;28;45536;-67
2022/06/17 07:47:16;;;;;;;;;12.00;10.33;;;;;29.30;31.54;101960.63;5063257;28;46106;-67
2022/06/17 07:49:42;;;;;;;;;10.00;9.00;;;;;29.42;31.90;101955.06;5062738;28;45472;-66
2022/06/17 07:52:08;;;;;;;;;9.00;8.50;;;;;29.54;31.15;101966.25;5063634;28;45322;-66
2022/06/17 07:54:34;;;;;;;;;10.00;10.00;;;;;29.56;31.50;101956.53;5063886;28;45466;-66
2022/06/17 07:56:59;;;;;;;;;8.33;8.33;;;;;29.65;31.08;101971.88;5078566;28;47123;-67
2022/06/17 07:59:24;;;;;;;;;14.75;12.50;;;;;29.70;31.14;101974.78;5062681;28;45298;-67
2022/06/17 08:01:50;;;;;;;;;10.75;10.00;;;;;29.87;31.08;101979.63;5063724;28;45366;-67
2022/06/17 08:04:15;;;;;;;;;10.75;10.75;;;;;30.01;31.06;101981.09;5064303;28;45253;-67
2022/06/17 08:06:40;;;;;;;;;14.00;13.00;;;;;30.14;30.21;101987.25;5063167;28;45370;-66
2022/06/17 08:09:06;;;;;;;;;13.25;12.25;;;;;29.97;30.66;101980.72;5063063;28;45210;-67
2022/06/17 08:11:31;;;;;;;;;18.75;16.75;;;;;30.06;30.33;101982.03;5063520;28;45245;-66
2022/06/17 08:13:57;;;;;;;;;11.50;10.50;;;;;30.23;30.57;101976.50;5064195;28;45318;-66
2022/06/17 08:16:23;;;;;;;;;13.00;10.50;;;;;30.31;29.54;101990.13;5063227;28;53576;-67
2022/06/17 08:18:48;;;;;;;;;15.75;13.50;;;;;30.24;29.61;101988.56;5064012;28;45222;-67
2022/06/17 08:21:14;;;;;;;;;13.50;11.00;;;;;30.04;29.50;101991.78;5078782;27;45196;-67
2022/06/17 08:23:40;;;;;;;;;10.50;10.50;;;;;30.40;29.71;101991.41;5063830;28;45288;-67
2022/06/17 08:26:05;;;;;;;;;12.50;11.25;;;;;30.66;29.21;101991.94;5062795;28;45536;-67
2022/06/17 08:28:31;;;;;;;;;11.50;11.50;;;;;30.69;29.18;101969.84;5061944;28;45420;-67
2022/06/17 08:30:57;;;;;;;;;10.00;10.00;;;;;30.75;28.55;101980.06;5062077;28;45516;-67
2022/06/17 08:33:29;;;;;;;;;13.50;13.50;;;;;30.17;28.49;101977.50;5063591;28;45313;-67
2022/06/17 08:36:00;;;;;;;;;12.00;12.00;;;;;30.09;28.75;101967.53;5061451;28;47072;-67
2022/06/17 08:38:31;;;;;;;;;9.25;9.25;;;;;30.15;28.77;101971.28;5063403;28;45557;-67
2022/06/17 08:41:07;;;;;;;;;11.00;9.33;;;;;30.56;28.69;101975.75;5062971;28;45330;-66
2022/06/17 08:43:35;;;;;;;;;12.00;10.50;;;;;30.61;27.72;101970.28;5063114;28;45670;-67
2022/06/17 08:46:06;;;;;;;;;11.25;11.00;;;;;30.78;27.10;101961.84;5063249;28;45297;-67
2022/06/17 08:48:50;;;;;;;;;12.00;9.50;;;;;30.80;26.77;101968.06;5061501;28;45421;-67
2022/06/17 08:51:36;;;;;;;;;11.00;11.00;;;;;31.02;26.77;101954.13;5063030;28;45307;-67
2022/06/17 08:54:06;;;;;;;;;11.33;10.00;;;;;31.04;26.51;101958.41;5063120;28;45386;-67
2022/06/17 08:56:41;;;;;;;;;9.67;9.67;;;;;31.38;26.69;101950.81;5062494;28;45409;-67
2022/06/17 08:59:34;;;;;;;;;13.00;11.25;;;;;31.57;27.03;101945.75;5063141;28;45279;-67
2022/06/17 09:02:08;;;;;;;;;12.75;12.75;;;;;31.85;26.41;101947.59;5062828;28;45282;-67
2022/06/17 09:04:40;;;;;;;;;11.75;11.25;;;;;32.08;26.33;101958.53;5061927;28;45345;-67
2022/06/17 09:07:14;;;;;;;;;13.50;13.00;;;;;32.30;25.27;101956.59;5062349;28;45755;-67
2022/06/17 09:10:12;;;;;;;;;10.75;10.75;;;;;32.37;25.28;101951.59;5062213;28;45243;-67
2022/06/17 09:12:57;;;;;;;;;14.50;12.75;;;;;32.33;25.30;101956.06;5060671;28;45375;-67
2022/06/17 09:16:06;;;;;;;;;17.50;15.25;;;;;32.32;24.16;101943.13;5062910;28;45408;-67
2022/06/17 09:18:39;;;;;;;;;10.33;10.33;;;;;31.74;24.53;101942.94;5041569;28;47340;-67
2022/06/17 09:21:22;;;;;;;;;9.33;8.33;;;;;32.18;25.03;101944.66;5062324;28;45329;-68
2022/06/17 09:23:49;;;;;;;;;10.75;10.25;;;;;32.38;24.34;101944.88;5061438;28;45304;-68
2022/06/17 09:26:21;;;;;;;;;9.00;9.00;;;;;32.35;24.29;101948.25;5062392;28;45341;-68
2022/06/17 09:28:57;;;;;;;;;9.00;8.33;;;;;32.03;23.82;101948.09;5062019;28;46313;-68
2022/06/17 09:31:48;;;;;;;;;8.67;8.67;;;;;31.55;24.34;101943.22;5062197;28;45465;-68
2022/06/17 09:34:31;;;;;;;;;10.67;10.00;;;;;31.88;24.84;101942.28;5077753;27;45353;-68
2022/06/17 09:37:08;;;;;;;;;9.00;9.00;;;;;32.30;24.15;101930.44;5060638;28;45266;-67
2022/06/17 09:39:43;;;;;;;;;8.00;8.00;;;;;32.74;23.93;101936.81;5062145;28;45703;-69
2022/06/17 09:42:16;;;;;;;;;9.67;9.67;;;;;33.13;23.74;101943.06;5060534;28;45246;-69
2022/06/17 09:44:55;;;;;;;;;7.00;7.00;;;;;33.40;23.90;101940.19;5062313;28;45279;-67
2022/06/17 09:47:28;;;;;;;;;13.25;11.50;;;;;33.65;23.26;101934.69;5062433;28;45648;-67
2022/06/17 09:50:21;;;;;;;;;7.33;7.33;;;;;33.99;23.97;101938.84;5061933;28;45659;-67
2022/06/17 09:53:01;;;;;;;;;11.00;9.00;;;;;34.23;22.64;101927.94;5062085;28;45395;-67
2022/06/17 09:55:41;;;;;;;;;9.67;9.00;;;;;34.43;22.98;101927.13;5062034;28;45369;-67
2022/06/17 09:58:32;;;;;;;;;10.67;10.67;;;;;34.62;22.17;101933.09;5060846;28;45188;-68
2022/06/17 10:00:58;;;;;;;;;6.75;6.75;;;;;34.82;21.98;101929.47;5061899;28;46494;-68
2022/06/17 10:03:32;;;;;;;;;10.50;10.25;;;;;35.03;21.73;101937.66;5060372;28;45290;-68
2022/06/17 10:06:23;;;;;;;;;9.50;6.75;;;;;34.92;20.67;101932.31;5061168;28;45454;-68
2022/06/17 10:09:22;;;;;;;;;11.00;10.00;;;;;34.78;20.49;101931.19;5062512;28;45465;-68
2022/06/17 10:12:09;;;;;;;;;10.25;9.25;;;;;34.66;21.02;101932.25;5061887;28;45344;-67
2022/06/17 10:14:49;;;;;;;;;12.00;10.00;;;;;35.01;20.95;101936.22;5061917;28;45271;-68
2022/06/17 10:20:24;;;;;;;;;10.25;10.25;;;;;35.34;21.07;101934.84;5062369;28;45377;-68
2022/06/17 10:23:11;;;;;;;;;11.00;11.00;;;;;35.68;20.36;101941.50;5061474;28;45348;-68
2022/06/17 10:26:03;;;;;;;;;7.33;7.00;;;;;35.99;20.02;101927.28;5062247;28;45345;-68
2022/06/17 10:28:46;;;;;;;;;10.50;9.00;;;;;36.35;20.91;101919.47;5051544;28;45405;-68
2022/06/17 10:31:39;;;;;;;;;10.50;10.50;;;;;36.64;20.00;101926.91;5063583;28;45282;-68
2022/06/17 10:34:39;;;;;;;;;9.25;8.00;;;;;36.89;19.48;101922.22;5064144;28;45455;-68
2022/06/17 10:37:05;;;;;;;;;7.00;7.00;;;;;37.12;19.40;101921.44;5068510;28;45453;-69
2022/06/17 10:39:35;;;;;;;;;6.75;6.75;;;;;36.56;19.42;101923.84;5065083;28;45490;-68
2022/06/17 10:42:01;;;;;;;;;6.50;6.50;;;;;36.90;18.47;101930.41;5065113;28;45481;-68
2022/06/17 10:44:28;;;;;;;;;11.00;9.00;;;;;37.02;18.75;101939.38;5064711;28;46239;-68
2022/06/17 10:47:05;;;;;;;;;8.75;8.75;;;;;37.37;18.52;101929.69;5064361;28;45392;-68
2022/06/17 10:49:56;;;;;;;;;29.25;28.00;;;;;37.57;19.31;101922.94;5064877;28;45231;-68
2022/06/17 10:52:28;;;;;;;;;8.00;8.00;;;;;37.55;17.83;101928.09;5065033;28;45361;-68
2022/06/17 10:54:54;;;;;;;;;7.00;7.00;;;;;37.30;17.77;101925.53;5064518;28;45523;-69
2022/06/17 10:57:26;;;;;;;;;10.50;9.25;;;;;37.43;17.51;101930.47;5063099;28;45689;-69
2022/06/17 10:59:52;;;;;;;;;9.00;9.00;;;;;37.90;18.50;101926.00;5064836;28;45334;-69
2022/06/17 11:02:29;;;;;;;;;8.25;8.25;;;;;38.30;18.24;101924.59;5064978;28;45374;-69
2022/06/17 11:05:05;;;;;;;;;8.25;8.00;;;;;38.57;16.71;101929.63;5069870;28;45544;-69
2022/06/17 11:07:35;;;;;;;;;9.75;8.75;;;;;37.73;17.85;101934.97;5075108;28;45430;-69
2022/06/17 11:10:13;;;;;;;;;9.50;8.75;;;;;37.65;17.69;101939.31;5056973;27;45384;-69
2022/06/17 11:12:42;;;;;;;;;9.25;8.25;;;;;37.51;18.80;101927.00;5063432;28;45529;-69
2022/06/17 11:15:30;;;;;;;;;7.00;7.00;;;;;38.00;17.88;101909.66;5064325;28;45672;-68
2022/06/17 11:18:05;;;;;;;;;9.00;8.75;;;;;38.18;17.66;101923.06;5063142;28;45762;-69
2022/06/17 11:20:33;;;;;;;;;7.50;7.25;;;;;37.21;17.99;101930.16;5072324;28;45421;-69
2022/06/17 11:23:03;;;;;;;;;3.75;3.75;;;;;37.13;18.76;101925.13;5067198;28;45378;-68
2022/06/17 11:25:31;;;;;;;;;7.25;7.25;;;;;37.71;18.12;101906.91;5067361;28;45655;-68
2022/06/17 11:28:07;;;;;;;;;9.75;8.00;;;;;37.76;18.17;101915.38;5063640;28;45183;-69
2022/06/17 11:30:38;;;;;;;;;7.25;6.75;;;;;37.51;18.09;101924.16;5061954;28;45457;-69
2022/06/17 11:33:40;;;;;;;;;9.75;9.75;;;;;37.98;18.22;101906.28;5066504;28;45550;-68
2022/06/17 11:36:19;;;;;;;;;6.75;6.75;;;;;38.46;16.46;101917.53;5063260;28;45938;-68
2022/06/17 11:38:45;;;;;;;;;5.25;5.25;;;;;37.98;16.60;101911.13;5064271;28;45310;-68
2022/06/17 11:41:36;;;;;;;;;7.00;7.00;;;;;38.38;17.10;101913.38;5079883;27;45360;-69
2022/06/17 11:44:11;;;;;;;;;6.25;6.25;;;;;39.04;16.58;101909.50;5073059;28;45505;-68